sensor_id;sensor_type;location;lat;lon;timestamp;P1;durP1;ratioP1;P2;durP2;ratioP2
63499;SDS011;49654;51.142;14.924;2023-02-22T00:00:09;10.55;;;3.60;;
63499;SDS011;49654;51.142;14.924;2023-02-22T00:02:45;20.95;;;4.05;;
63499;SDS011;49654;51.142;14.924;2023-02-22T00:05:13;20.02;;;4.32;;
63499;SDS011;49654;51.142;14.924;2023-02-22T00:07:41;15.57;;;3.45;;
63499;SDS011;49654;51.142;14.924;2023-02-22T00:10:09;17.10;;;4.35;;
63499;SDS011;49654;51.142;14.924;2023-02-22T00:12:39;13.98;;;3.58;;
63499;SDS011;49654;51.142;14.924;2023-02-22T00:15:06;16.58;;;3.75;;
63499;SDS011;49654;51.142;14.924;2023-02-22T00:17:34;20.45;;;3.60;;
63499;SDS011;49654;51.142;14.924;2023-02-22T00:20:03;15.95;;;3.47;;
63499;SDS011;49654;51.142;14.924;2023-02-22T00:22:31;16.30;;;3.65;;
63499;SDS011;49654;51.142;14.924;2023-02-22T00:24:59;13.95;;;3.85;;
63499;SDS011;49654;51.142;14.924;2023-02-22T00:27:26;17.70;;;4.00;;
63499;SDS011;49654;51.142;14.924;2023-02-22T00:29:53;18.85;;;4.15;;
63499;SDS011;49654;51.142;14.924;2023-02-22T00:32:21;17.67;;;4.20;;
63499;SDS011;49654;51.142;14.924;2023-02-22T00:34:50;17.50;;;4.05;;
63499;SDS011;49654;51.142;14.924;2023-02-22T00:37:20;14.70;;;3.75;;
63499;SDS011;49654;51.142;14.924;2023-02-22T00:39:47;17.52;;;4.30;;
63499;SDS011;49654;51.142;14.924;2023-02-22T00:42:14;17.88;;;3.97;;
63499;SDS011;49654;51.142;14.924;2023-02-22T00:44:42;17.50;;;4.50;;
63499;SDS011;49654;51.142;14.924;2023-02-22T00:47:09;13.68;;;3.85;;
63499;SDS011;49654;51.142;14.924;2023-02-22T00:49:37;15.00;;;3.88;;
63499;SDS011;49654;51.142;14.924;2023-02-22T00:52:04;16.08;;;4.35;;
63499;SDS011;49654;51.142;14.924;2023-02-22T00:54:33;20.17;;;4.90;;
63499;SDS011;49654;51.142;14.924;2023-02-22T00:57:00;17.75;;;4.07;;
63499;SDS011;49654;51.142;14.924;2023-02-22T00:59:28;15.77;;;3.88;;
63499;SDS011;49654;51.142;14.924;2023-02-22T01:01:56;13.52;;;3.63;;
63499;SDS011;49654;51.142;14.924;2023-02-22T01:04:23;13.68;;;3.75;;
63499;SDS011;49654;51.142;14.924;2023-02-22T01:06:50;15.50;;;3.50;;
63499;SDS011;49654;51.142;14.924;2023-02-22T01:09:18;11.88;;;3.33;;
63499;SDS011;49654;51.142;14.924;2023-02-22T01:11:47;14.25;;;3.80;;
63499;SDS011;49654;51.142;14.924;2023-02-22T01:14:19;12.88;;;3.20;;
63499;SDS011;49654;51.142;14.924;2023-02-22T01:16:48;13.52;;;3.35;;
63499;SDS011;49654;51.142;14.924;2023-02-22T01:19:16;8.38;;;3.15;;
63499;SDS011;49654;51.142;14.924;2023-02-22T01:21:43;11.30;;;3.00;;
63499;SDS011;49654;51.142;14.924;2023-02-22T01:24:11;16.05;;;3.22;;
63499;SDS011;49654;51.142;14.924;2023-02-22T01:26:40;15.85;;;3.42;;
63499;SDS011;49654;51.142;14.924;2023-02-22T01:29:09;11.90;;;2.90;;
63499;SDS011;49654;51.142;14.924;2023-02-22T01:31:39;12.25;;;2.85;;
63499;SDS011;49654;51.142;14.924;2023-02-22T01:34:08;7.47;;;2.78;;
63499;SDS011;49654;51.142;14.924;2023-02-22T01:36:35;11.18;;;3.13;;
63499;SDS011;49654;51.142;14.924;2023-02-22T01:39:02;12.23;;;3.40;;
63499;SDS011;49654;51.142;14.924;2023-02-22T01:41:29;13.50;;;3.53;;
63499;SDS011;49654;51.142;14.924;2023-02-22T01:43:56;12.90;;;3.60;;
63499;SDS011;49654;51.142;14.924;2023-02-22T01:46:25;12.20;;;2.97;;
63499;SDS011;49654;51.142;14.924;2023-02-22T01:48:55;13.85;;;3.10;;
63499;SDS011;49654;51.142;14.924;2023-02-22T01:51:27;11.43;;;3.40;;
63499;SDS011;49654;51.142;14.924;2023-02-22T01:53:58;14.88;;;3.47;;
63499;SDS011;49654;51.142;14.924;2023-02-22T01:56:53;13.65;;;3.60;;
63499;SDS011;49654;51.142;14.924;2023-02-22T01:59:32;15.82;;;3.30;;
63499;SDS011;49654;51.142;14.924;2023-02-22T02:02:04;17.05;;;3.47;;
63499;SDS011;49654;51.142;14.924;2023-02-22T02:04:31;13.32;;;3.58;;
63499;SDS011;49654;51.142;14.924;2023-02-22T02:07:01;8.63;;;2.92;;
63499;SDS011;49654;51.142;14.924;2023-02-22T02:09:33;13.32;;;3.70;;
63499;SDS011;49654;51.142;14.924;2023-02-22T02:12:04;11.73;;;3.50;;
63499;SDS011;49654;51.142;14.924;2023-02-22T02:14:34;11.35;;;4.10;;
63499;SDS011;49654;51.142;14.924;2023-02-22T02:17:06;13.05;;;3.47;;
63499;SDS011;49654;51.142;14.924;2023-02-22T02:19:38;11.48;;;3.58;;
63499;SDS011;49654;51.142;14.924;2023-02-22T02:22:22;11.68;;;3.67;;
63499;SDS011;49654;51.142;14.924;2023-02-22T02:25:06;17.92;;;3.97;;
63499;SDS011;49654;51.142;14.924;2023-02-22T02:27:50;9.73;;;3.20;;
63499;SDS011;49654;51.142;14.924;2023-02-22T02:30:36;10.75;;;3.30;;
63499;SDS011;49654;51.142;14.924;2023-02-22T02:33:16;9.57;;;2.90;;
63499;SDS011;49654;51.142;14.924;2023-02-22T02:35:48;11.68;;;3.58;;
63499;SDS011;49654;51.142;14.924;2023-02-22T02:38:27;11.75;;;3.63;;
63499;SDS011;49654;51.142;14.924;2023-02-22T02:41:02;11.05;;;3.70;;
63499;SDS011;49654;51.142;14.924;2023-02-22T02:43:36;11.38;;;3.95;;
63499;SDS011;49654;51.142;14.924;2023-02-22T02:46:08;11.00;;;4.03;;
63499;SDS011;49654;51.142;14.924;2023-02-22T02:48:42;12.73;;;4.03;;
63499;SDS011;49654;51.142;14.924;2023-02-22T02:51:14;11.07;;;4.05;;
63499;SDS011;49654;51.142;14.924;2023-02-22T02:53:44;12.95;;;4.07;;
63499;SDS011;49654;51.142;14.924;2023-02-22T02:56:15;10.70;;;4.32;;
63499;SDS011;49654;51.142;14.924;2023-02-22T02:58:43;11.43;;;4.07;;
63499;SDS011;49654;51.142;14.924;2023-02-22T03:01:14;13.43;;;4.65;;
63499;SDS011;49654;51.142;14.924;2023-02-22T03:03:51;11.32;;;4.43;;
63499;SDS011;49654;51.142;14.924;2023-02-22T03:06:43;10.70;;;3.83;;
63499;SDS011;49654;51.142;14.924;2023-02-22T03:09:30;11.52;;;4.28;;
63499;SDS011;49654;51.142;14.924;2023-02-22T03:12:09;9.63;;;4.70;;
63499;SDS011;49654;51.142;14.924;2023-02-22T03:14:47;12.68;;;5.15;;
63499;SDS011;49654;51.142;14.924;2023-02-22T03:17:27;11.95;;;5.07;;
63499;SDS011;49654;51.142;14.924;2023-02-22T03:20:08;14.23;;;5.68;;
63499;SDS011;49654;51.142;14.924;2023-02-22T03:22:39;10.07;;;4.72;;
63499;SDS011;49654;51.142;14.924;2023-02-22T03:25:14;10.93;;;4.97;;
63499;SDS011;49654;51.142;14.924;2023-02-22T03:27:47;10.38;;;4.50;;
63499;SDS011;49654;51.142;14.924;2023-02-22T03:30:18;10.63;;;4.45;;
63499;SDS011;49654;51.142;14.924;2023-02-22T03:32:50;11.10;;;4.15;;
63499;SDS011;49654;51.142;14.924;2023-02-22T03:35:25;14.60;;;4.47;;
63499;SDS011;49654;51.142;14.924;2023-02-22T03:37:57;12.23;;;3.88;;
63499;SDS011;49654;51.142;14.924;2023-02-22T03:40:28;11.73;;;4.03;;
63499;SDS011;49654;51.142;14.924;2023-02-22T03:42:59;11.55;;;3.50;;
63499;SDS011;49654;51.142;14.924;2023-02-22T03:45:31;10.30;;;3.38;;
63499;SDS011;49654;51.142;14.924;2023-02-22T03:48:00;6.25;;;2.75;;
63499;SDS011;49654;51.142;14.924;2023-02-22T03:50:33;6.45;;;2.72;;
63499;SDS011;49654;51.142;14.924;2023-02-22T03:53:02;10.98;;;3.97;;
63499;SDS011;49654;51.142;14.924;2023-02-22T03:55:32;9.73;;;3.30;;
63499;SDS011;49654;51.142;14.924;2023-02-22T03:58:01;5.50;;;2.72;;
63499;SDS011;49654;51.142;14.924;2023-02-22T04:00:32;8.23;;;3.10;;
63499;SDS011;49654;51.142;14.924;2023-02-22T04:03:01;9.07;;;2.85;;
63499;SDS011;49654;51.142;14.924;2023-02-22T04:05:28;5.90;;;2.10;;
63499;SDS011;49654;51.142;14.924;2023-02-22T04:07:57;5.55;;;2.03;;
63499;SDS011;49654;51.142;14.924;2023-02-22T04:10:24;2.60;;;1.55;;
63499;SDS011;49654;51.142;14.924;2023-02-22T04:12:51;3.28;;;1.65;;
63499;SDS011;49654;51.142;14.924;2023-02-22T04:15:19;3.53;;;1.52;;
63499;SDS011;49654;51.142;14.924;2023-02-22T04:17:47;3.83;;;1.73;;
63499;SDS011;49654;51.142;14.924;2023-02-22T04:20:14;4.05;;;1.83;;
63499;SDS011;49654;51.142;14.924;2023-02-22T04:22:44;3.40;;;1.40;;
63499;SDS011;49654;51.142;14.924;2023-02-22T04:25:12;4.15;;;1.75;;
63499;SDS011;49654;51.142;14.924;2023-02-22T04:27:39;2.85;;;1.27;;
63499;SDS011;49654;51.142;14.924;2023-02-22T04:30:07;3.40;;;1.60;;
63499;SDS011;49654;51.142;14.924;2023-02-22T04:32:35;4.63;;;1.58;;
63499;SDS011;49654;51.142;14.924;2023-02-22T04:35:03;2.95;;;1.70;;
63499;SDS011;49654;51.142;14.924;2023-02-22T04:37:30;2.88;;;1.40;;
63499;SDS011;49654;51.142;14.924;2023-02-22T04:39:59;2.30;;;1.38;;
63499;SDS011;49654;51.142;14.924;2023-02-22T04:42:28;3.53;;;1.90;;
63499;SDS011;49654;51.142;14.924;2023-02-22T04:44:55;2.45;;;1.70;;
63499;SDS011;49654;51.142;14.924;2023-02-22T04:47:22;2.42;;;1.38;;
63499;SDS011;49654;51.142;14.924;2023-02-22T04:49:58;3.15;;;1.55;;
63499;SDS011;49654;51.142;14.924;2023-02-22T04:52:25;3.28;;;1.80;;
63499;SDS011;49654;51.142;14.924;2023-02-22T04:54:53;4.43;;;1.83;;
63499;SDS011;49654;51.142;14.924;2023-02-22T04:57:20;7.65;;;2.63;;
63499;SDS011;49654;51.142;14.924;2023-02-22T04:59:48;5.75;;;2.20;;
63499;SDS011;49654;51.142;14.924;2023-02-22T05:02:15;5.15;;;3.00;;
63499;SDS011;49654;51.142;14.924;2023-02-22T05:04:43;4.45;;;2.35;;
63499;SDS011;49654;51.142;14.924;2023-02-22T05:07:10;6.70;;;2.47;;
63499;SDS011;49654;51.142;14.924;2023-02-22T05:09:37;6.28;;;2.58;;
63499;SDS011;49654;51.142;14.924;2023-02-22T05:12:04;5.53;;;2.47;;
63499;SDS011;49654;51.142;14.924;2023-02-22T05:14:32;9.60;;;2.53;;
63499;SDS011;49654;51.142;14.924;2023-02-22T05:17:00;6.97;;;2.80;;
63499;SDS011;49654;51.142;14.924;2023-02-22T05:19:27;6.72;;;3.05;;
63499;SDS011;49654;51.142;14.924;2023-02-22T05:21:54;5.25;;;2.58;;
63499;SDS011;49654;51.142;14.924;2023-02-22T05:24:22;5.95;;;2.90;;
63499;SDS011;49654;51.142;14.924;2023-02-22T05:26:49;5.47;;;2.53;;
63499;SDS011;49654;51.142;14.924;2023-02-22T05:29:17;5.63;;;2.65;;
63499;SDS011;49654;51.142;14.924;2023-02-22T05:31:45;7.40;;;2.70;;
63499;SDS011;49654;51.142;14.924;2023-02-22T05:34:13;7.57;;;3.40;;
63499;SDS011;49654;51.142;14.924;2023-02-22T05:36:41;9.88;;;3.38;;
63499;SDS011;49654;51.142;14.924;2023-02-22T05:39:08;8.75;;;4.15;;
63499;SDS011;49654;51.142;14.924;2023-02-22T05:41:35;10.25;;;4.63;;
63499;SDS011;49654;51.142;14.924;2023-02-22T05:44:02;11.77;;;4.88;;
63499;SDS011;49654;51.142;14.924;2023-02-22T05:46:29;10.35;;;4.93;;
63499;SDS011;49654;51.142;14.924;2023-02-22T05:48:56;8.77;;;4.57;;
63499;SDS011;49654;51.142;14.924;2023-02-22T05:51:25;10.75;;;5.65;;
63499;SDS011;49654;51.142;14.924;2023-02-22T05:53:52;9.50;;;5.18;;
63499;SDS011;49654;51.142;14.924;2023-02-22T05:56:19;11.40;;;6.10;;
63499;SDS011;49654;51.142;14.924;2023-02-22T05:58:47;11.07;;;5.07;;
63499;SDS011;49654;51.142;14.924;2023-02-22T06:01:14;10.68;;;4.90;;
63499;SDS011;49654;51.142;14.924;2023-02-22T06:03:41;9.23;;;5.40;;
63499;SDS011;49654;51.142;14.924;2023-02-22T06:06:08;8.57;;;4.90;;
63499;SDS011;49654;51.142;14.924;2023-02-22T06:08:36;8.00;;;4.53;;
63499;SDS011;49654;51.142;14.924;2023-02-22T06:11:03;10.80;;;4.97;;
63499;SDS011;49654;51.142;14.924;2023-02-22T06:13:31;10.63;;;4.63;;
63499;SDS011;49654;51.142;14.924;2023-02-22T06:15:58;11.25;;;5.35;;
63499;SDS011;49654;51.142;14.924;2023-02-22T06:18:25;9.15;;;6.00;;
63499;SDS011;49654;51.142;14.924;2023-02-22T06:20:55;19.15;;;10.65;;
63499;SDS011;49654;51.142;14.924;2023-02-22T06:23:22;16.13;;;12.13;;
63499;SDS011;49654;51.142;14.924;2023-02-22T06:25:50;17.27;;;13.35;;
63499;SDS011;49654;51.142;14.924;2023-02-22T06:28:18;13.50;;;9.80;;
63499;SDS011;49654;51.142;14.924;2023-02-22T06:30:45;13.10;;;9.43;;
63499;SDS011;49654;51.142;14.924;2023-02-22T06:33:12;15.27;;;8.57;;
63499;SDS011;49654;51.142;14.924;2023-02-22T06:35:39;15.18;;;8.40;;
63499;SDS011;49654;51.142;14.924;2023-02-22T06:38:06;15.52;;;9.45;;
63499;SDS011;49654;51.142;14.924;2023-02-22T06:40:33;15.50;;;8.65;;
63499;SDS011;49654;51.142;14.924;2023-02-22T06:43:02;13.73;;;7.68;;
63499;SDS011;49654;51.142;14.924;2023-02-22T06:45:29;18.70;;;8.60;;
63499;SDS011;49654;51.142;14.924;2023-02-22T06:47:56;11.38;;;7.35;;
63499;SDS011;49654;51.142;14.924;2023-02-22T06:50:24;15.45;;;7.00;;
63499;SDS011;49654;51.142;14.924;2023-02-22T06:52:54;15.52;;;5.50;;
63499;SDS011;49654;51.142;14.924;2023-02-22T06:55:22;16.77;;;5.50;;
63499;SDS011;49654;51.142;14.924;2023-02-22T06:57:50;13.95;;;5.40;;
63499;SDS011;49654;51.142;14.924;2023-02-22T07:00:20;18.42;;;6.45;;
63499;SDS011;49654;51.142;14.924;2023-02-22T07:02:49;14.70;;;5.35;;
63499;SDS011;49654;51.142;14.924;2023-02-22T07:05:17;16.42;;;4.35;;
63499;SDS011;49654;51.142;14.924;2023-02-22T07:07:46;12.73;;;4.13;;
63499;SDS011;49654;51.142;14.924;2023-02-22T07:10:16;13.45;;;4.80;;
63499;SDS011;49654;51.142;14.924;2023-02-22T07:12:45;14.05;;;4.45;;
63499;SDS011;49654;51.142;14.924;2023-02-22T07:15:13;13.30;;;4.20;;
63499;SDS011;49654;51.142;14.924;2023-02-22T07:17:41;14.20;;;4.35;;
63499;SDS011;49654;51.142;14.924;2023-02-22T07:20:08;13.27;;;3.85;;
63499;SDS011;49654;51.142;14.924;2023-02-22T07:22:36;10.60;;;4.82;;
63499;SDS011;49654;51.142;14.924;2023-02-22T07:25:04;14.32;;;3.90;;
63499;SDS011;49654;51.142;14.924;2023-02-22T07:27:35;11.13;;;3.05;;
63499;SDS011;49654;51.142;14.924;2023-02-22T07:30:02;10.43;;;3.63;;
63499;SDS011;49654;51.142;14.924;2023-02-22T07:32:29;13.45;;;4.00;;
63499;SDS011;49654;51.142;14.924;2023-02-22T07:34:58;10.38;;;3.58;;
63499;SDS011;49654;51.142;14.924;2023-02-22T07:37:27;11.65;;;4.38;;
63499;SDS011;49654;51.142;14.924;2023-02-22T07:39:54;12.02;;;3.78;;
63499;SDS011;49654;51.142;14.924;2023-02-22T07:42:21;13.10;;;4.10;;
63499;SDS011;49654;51.142;14.924;2023-02-22T07:44:48;15.63;;;4.32;;
63499;SDS011;49654;51.142;14.924;2023-02-22T07:47:15;12.45;;;3.90;;
63499;SDS011;49654;51.142;14.924;2023-02-22T07:49:42;15.52;;;4.30;;
63499;SDS011;49654;51.142;14.924;2023-02-22T07:52:10;16.73;;;4.20;;
63499;SDS011;49654;51.142;14.924;2023-02-22T07:54:37;13.38;;;4.30;;
63499;SDS011;49654;51.142;14.924;2023-02-22T07:57:04;11.98;;;4.03;;
63499;SDS011;49654;51.142;14.924;2023-02-22T07:59:31;15.10;;;4.00;;
63499;SDS011;49654;51.142;14.924;2023-02-22T08:01:59;13.18;;;4.03;;
63499;SDS011;49654;51.142;14.924;2023-02-22T08:04:26;14.25;;;3.90;;
63499;SDS011;49654;51.142;14.924;2023-02-22T08:06:53;12.63;;;3.63;;
63499;SDS011;49654;51.142;14.924;2023-02-22T08:09:21;14.32;;;3.95;;
63499;SDS011;49654;51.142;14.924;2023-02-22T08:11:48;13.07;;;3.60;;
63499;SDS011;49654;51.142;14.924;2023-02-22T08:14:15;13.88;;;3.90;;
63499;SDS011;49654;51.142;14.924;2023-02-22T08:16:42;12.38;;;3.50;;
63499;SDS011;49654;51.142;14.924;2023-02-22T08:19:09;13.10;;;4.28;;
63499;SDS011;49654;51.142;14.924;2023-02-22T08:21:36;13.15;;;4.38;;
63499;SDS011;49654;51.142;14.924;2023-02-22T08:24:03;12.15;;;3.50;;
63499;SDS011;49654;51.142;14.924;2023-02-22T08:26:32;13.52;;;3.88;;
63499;SDS011;49654;51.142;14.924;2023-02-22T08:28:59;10.05;;;3.95;;
63499;SDS011;49654;51.142;14.924;2023-02-22T08:31:26;10.55;;;3.92;;
63499;SDS011;49654;51.142;14.924;2023-02-22T08:33:53;13.90;;;4.03;;
63499;SDS011;49654;51.142;14.924;2023-02-22T08:36:20;14.73;;;4.05;;
63499;SDS011;49654;51.142;14.924;2023-02-22T08:38:47;12.48;;;3.97;;
63499;SDS011;49654;51.142;14.924;2023-02-22T08:41:14;11.95;;;3.65;;
63499;SDS011;49654;51.142;14.924;2023-02-22T08:43:42;12.65;;;4.30;;
63499;SDS011;49654;51.142;14.924;2023-02-22T08:46:09;11.27;;;4.35;;
63499;SDS011;49654;51.142;14.924;2023-02-22T08:48:36;11.30;;;3.92;;
63499;SDS011;49654;51.142;14.924;2023-02-22T08:51:03;14.38;;;4.50;;
63499;SDS011;49654;51.142;14.924;2023-02-22T08:53:31;13.30;;;3.78;;
63499;SDS011;49654;51.142;14.924;2023-02-22T08:55:58;9.52;;;2.70;;
63499;SDS011;49654;51.142;14.924;2023-02-22T08:58:25;10.50;;;3.15;;
63499;SDS011;49654;51.142;14.924;2023-02-22T09:00:53;14.98;;;3.95;;
63499;SDS011;49654;51.142;14.924;2023-02-22T09:03:20;11.32;;;4.20;;
63499;SDS011;49654;51.142;14.924;2023-02-22T09:05:47;17.08;;;5.28;;
63499;SDS011;49654;51.142;14.924;2023-02-22T09:08:14;13.57;;;4.68;;
63499;SDS011;49654;51.142;14.924;2023-02-22T09:10:42;13.38;;;4.93;;
63499;SDS011;49654;51.142;14.924;2023-02-22T09:13:10;10.88;;;4.90;;
63499;SDS011;49654;51.142;14.924;2023-02-22T09:15:37;18.88;;;7.00;;
63499;SDS011;49654;51.142;14.924;2023-02-22T09:18:07;10.98;;;5.07;;
63499;SDS011;49654;51.142;14.924;2023-02-22T09:20:37;11.88;;;4.70;;
63499;SDS011;49654;51.142;14.924;2023-02-22T09:23:04;14.02;;;5.07;;
63499;SDS011;49654;51.142;14.924;2023-02-22T09:25:31;10.70;;;4.75;;
63499;SDS011;49654;51.142;14.924;2023-02-22T09:28:00;11.15;;;5.47;;
63499;SDS011;49654;51.142;14.924;2023-02-22T09:30:28;12.15;;;5.25;;
63499;SDS011;49654;51.142;14.924;2023-02-22T09:32:58;14.32;;;5.18;;
63499;SDS011;49654;51.142;14.924;2023-02-22T09:35:27;14.25;;;5.97;;
63499;SDS011;49654;51.142;14.924;2023-02-22T09:37:54;11.82;;;4.65;;
63499;SDS011;49654;51.142;14.924;2023-02-22T09:40:23;11.88;;;5.20;;
63499;SDS011;49654;51.142;14.924;2023-02-22T09:43:01;11.45;;;5.28;;
63499;SDS011;49654;51.142;14.924;2023-02-22T09:45:43;12.52;;;5.47;;
63499;SDS011;49654;51.142;14.924;2023-02-22T09:48:20;12.45;;;5.00;;
63499;SDS011;49654;51.142;14.924;2023-02-22T09:50:51;14.23;;;5.35;;
63499;SDS011;49654;51.142;14.924;2023-02-22T09:53:25;9.65;;;4.40;;
63499;SDS011;49654;51.142;14.924;2023-02-22T09:55:58;9.13;;;4.50;;
63499;SDS011;49654;51.142;14.924;2023-02-22T09:58:30;11.73;;;4.28;;
63499;SDS011;49654;51.142;14.924;2023-02-22T10:01:06;8.30;;;4.18;;
63499;SDS011;49654;51.142;14.924;2023-02-22T10:03:50;10.57;;;4.88;;
63499;SDS011;49654;51.142;14.924;2023-02-22T10:06:23;9.13;;;4.35;;
63499;SDS011;49654;51.142;14.924;2023-02-22T10:08:51;9.32;;;4.63;;
63499;SDS011;49654;51.142;14.924;2023-02-22T10:11:26;9.77;;;4.80;;
63499;SDS011;49654;51.142;14.924;2023-02-22T10:14:04;7.75;;;3.50;;
63499;SDS011;49654;51.142;14.924;2023-02-22T10:16:45;9.77;;;4.30;;
63499;SDS011;49654;51.142;14.924;2023-02-22T10:19:21;8.10;;;4.55;;
63499;SDS011;49654;51.142;14.924;2023-02-22T10:22:05;8.95;;;4.35;;
63499;SDS011;49654;51.142;14.924;2023-02-22T10:24:45;11.45;;;4.60;;
63499;SDS011;49654;51.142;14.924;2023-02-22T10:27:21;9.85;;;4.57;;
63499;SDS011;49654;51.142;14.924;2023-02-22T10:29:55;9.10;;;4.30;;
63499;SDS011;49654;51.142;14.924;2023-02-22T10:32:30;9.00;;;5.53;;
63499;SDS011;49654;51.142;14.924;2023-02-22T10:35:01;8.35;;;4.30;;
63499;SDS011;49654;51.142;14.924;2023-02-22T10:37:40;10.45;;;4.70;;
63499;SDS011;49654;51.142;14.924;2023-02-22T10:40:10;6.93;;;4.30;;
63499;SDS011;49654;51.142;14.924;2023-02-22T10:42:42;8.45;;;4.13;;
63499;SDS011;49654;51.142;14.924;2023-02-22T10:45:15;7.88;;;4.30;;
63499;SDS011;49654;51.142;14.924;2023-02-22T10:47:46;9.60;;;4.57;;
63499;SDS011;49654;51.142;14.924;2023-02-22T10:50:15;9.10;;;4.15;;
63499;SDS011;49654;51.142;14.924;2023-02-22T10:52:43;8.73;;;4.28;;
63499;SDS011;49654;51.142;14.924;2023-02-22T10:55:11;8.85;;;4.57;;
63499;SDS011;49654;51.142;14.924;2023-02-22T10:57:39;6.88;;;4.25;;
63499;SDS011;49654;51.142;14.924;2023-02-22T11:00:15;7.68;;;4.60;;
63499;SDS011;49654;51.142;14.924;2023-02-22T11:02:51;7.95;;;4.63;;
63499;SDS011;49654;51.142;14.924;2023-02-22T11:05:27;9.48;;;5.68;;
63499;SDS011;49654;51.142;14.924;2023-02-22T11:08:13;8.50;;;5.20;;
63499;SDS011;49654;51.142;14.924;2023-02-22T11:10:42;9.88;;;5.32;;
63499;SDS011;49654;51.142;14.924;2023-02-22T11:13:15;12.80;;;5.80;;
63499;SDS011;49654;51.142;14.924;2023-02-22T11:15:43;9.13;;;5.50;;
63499;SDS011;49654;51.142;14.924;2023-02-22T11:18:20;16.00;;;6.13;;
63499;SDS011;49654;51.142;14.924;2023-02-22T11:20:57;8.88;;;4.97;;
63499;SDS011;49654;51.142;14.924;2023-02-22T11:23:27;9.32;;;4.47;;
63499;SDS011;49654;51.142;14.924;2023-02-22T11:26:05;13.93;;;6.22;;
63499;SDS011;49654;51.142;14.924;2023-02-22T11:28:34;9.95;;;5.90;;
63499;SDS011;49654;51.142;14.924;2023-02-22T11:31:09;9.07;;;6.07;;
63499;SDS011;49654;51.142;14.924;2023-02-22T11:33:44;12.05;;;6.38;;
63499;SDS011;49654;51.142;14.924;2023-02-22T11:36:28;10.35;;;5.68;;
63499;SDS011;49654;51.142;14.924;2023-02-22T11:38:59;14.98;;;5.70;;
63499;SDS011;49654;51.142;14.924;2023-02-22T11:41:30;11.13;;;6.38;;
63499;SDS011;49654;51.142;14.924;2023-02-22T11:44:11;14.50;;;6.43;;
63499;SDS011;49654;51.142;14.924;2023-02-22T11:46:39;10.43;;;5.65;;
63499;SDS011;49654;51.142;14.924;2023-02-22T11:49:08;8.75;;;5.85;;
63499;SDS011;49654;51.142;14.924;2023-02-22T11:51:41;13.02;;;5.72;;
63499;SDS011;49654;51.142;14.924;2023-02-22T11:54:21;10.40;;;5.72;;
63499;SDS011;49654;51.142;14.924;2023-02-22T11:57:08;11.27;;;5.57;;
63499;SDS011;49654;51.142;14.924;2023-02-22T11:59:45;12.15;;;6.68;;
63499;SDS011;49654;51.142;14.924;2023-02-22T12:02:32;14.18;;;6.57;;
63499;SDS011;49654;51.142;14.924;2023-02-22T12:05:16;13.43;;;6.88;;
63499;SDS011;49654;51.142;14.924;2023-02-22T12:07:55;15.07;;;6.90;;
63499;SDS011;49654;51.142;14.924;2023-02-22T12:10:38;12.55;;;6.80;;
63499;SDS011;49654;51.142;14.924;2023-02-22T12:13:19;17.85;;;7.72;;
63499;SDS011;49654;51.142;14.924;2023-02-22T12:15:58;13.82;;;7.03;;
63499;SDS011;49654;51.142;14.924;2023-02-22T12:18:31;11.85;;;6.88;;
63499;SDS011;49654;51.142;14.924;2023-02-22T12:21:05;11.77;;;6.47;;
63499;SDS011;49654;51.142;14.924;2023-02-22T12:23:36;12.68;;;6.80;;
63499;SDS011;49654;51.142;14.924;2023-02-22T12:26:13;13.90;;;6.78;;
63499;SDS011;49654;51.142;14.924;2023-02-22T12:28:45;13.98;;;6.32;;
63499;SDS011;49654;51.142;14.924;2023-02-22T12:31:15;11.80;;;6.43;;
63499;SDS011;49654;51.142;14.924;2023-02-22T12:33:50;13.40;;;5.60;;
63499;SDS011;49654;51.142;14.924;2023-02-22T12:36:24;10.80;;;5.45;;
63499;SDS011;49654;51.142;14.924;2023-02-22T12:38:58;11.98;;;5.90;;
63499;SDS011;49654;51.142;14.924;2023-02-22T12:41:32;12.48;;;5.65;;
63499;SDS011;49654;51.142;14.924;2023-02-22T12:44:03;9.63;;;5.47;;
63499;SDS011;49654;51.142;14.924;2023-02-22T12:46:35;11.90;;;5.80;;
63499;SDS011;49654;51.142;14.924;2023-02-22T12:49:09;11.68;;;5.65;;
63499;SDS011;49654;51.142;14.924;2023-02-22T12:51:43;11.65;;;6.05;;
63499;SDS011;49654;51.142;14.924;2023-02-22T12:54:17;13.80;;;5.60;;
63499;SDS011;49654;51.142;14.924;2023-02-22T12:56:49;11.20;;;5.30;;
63499;SDS011;49654;51.142;14.924;2023-02-22T12:59:24;11.60;;;5.25;;
63499;SDS011;49654;51.142;14.924;2023-02-22T13:01:56;10.60;;;4.95;;
63499;SDS011;49654;51.142;14.924;2023-02-22T13:04:27;11.13;;;4.82;;
63499;SDS011;49654;51.142;14.924;2023-02-22T13:06:58;11.82;;;5.40;;
63499;SDS011;49654;51.142;14.924;2023-02-22T13:09:50;14.27;;;5.10;;
63499;SDS011;49654;51.142;14.924;2023-02-22T13:12:32;12.15;;;5.05;;
63499;SDS011;49654;51.142;14.924;2023-02-22T13:15:07;15.65;;;5.22;;
63499;SDS011;49654;51.142;14.924;2023-02-22T13:17:46;12.70;;;4.97;;
63499;SDS011;49654;51.142;14.924;2023-02-22T13:20:21;8.48;;;4.55;;
63499;SDS011;49654;51.142;14.924;2023-02-22T13:22:54;10.90;;;4.55;;
63499;SDS011;49654;51.142;14.924;2023-02-22T13:25:31;8.52;;;4.30;;
63499;SDS011;49654;51.142;14.924;2023-02-22T13:28:12;10.93;;;4.20;;
63499;SDS011;49654;51.142;14.924;2023-02-22T13:30:48;11.35;;;4.45;;
63499;SDS011;49654;51.142;14.924;2023-02-22T13:33:30;11.20;;;4.47;;
63499;SDS011;49654;51.142;14.924;2023-02-22T13:36:18;16.30;;;5.07;;
63499;SDS011;49654;51.142;14.924;2023-02-22T13:42:00;14.32;;;4.68;;
63499;SDS011;49654;51.142;14.924;2023-02-22T13:45:11;12.45;;;4.68;;
63499;SDS011;49654;51.142;14.924;2023-02-22T13:47:59;12.52;;;4.47;;
63499;SDS011;49654;51.142;14.924;2023-02-22T13:53:47;14.20;;;4.85;;
63499;SDS011;49654;51.142;14.924;2023-02-22T13:56:20;15.63;;;4.75;;
63499;SDS011;49654;51.142;14.924;2023-02-22T13:58:50;16.15;;;5.35;;
63499;SDS011;49654;51.142;14.924;2023-02-22T14:04:22;13.13;;;5.68;;
63499;SDS011;49654;51.142;14.924;2023-02-22T14:07:01;13.18;;;5.13;;
63499;SDS011;49654;51.142;14.924;2023-02-22T14:09:42;16.95;;;5.00;;
63499;SDS011;49654;51.142;14.924;2023-02-22T14:15:12;14.68;;;5.07;;
63499;SDS011;49654;51.142;14.924;2023-02-22T14:17:42;16.13;;;5.18;;
63499;SDS011;49654;51.142;14.924;2023-02-22T14:20:17;13.55;;;5.05;;
63499;SDS011;49654;51.142;14.924;2023-02-22T14:22:54;15.07;;;4.82;;
63499;SDS011;49654;51.142;14.924;2023-02-22T14:25:38;11.40;;;4.80;;
63499;SDS011;49654;51.142;14.924;2023-02-22T14:28:07;14.25;;;4.50;;
63499;SDS011;49654;51.142;14.924;2023-02-22T14:31:03;14.90;;;5.88;;
63499;SDS011;49654;51.142;14.924;2023-02-22T14:33:52;13.75;;;4.68;;
63499;SDS011;49654;51.142;14.924;2023-02-22T14:36:22;11.25;;;4.35;;
63499;SDS011;49654;51.142;14.924;2023-02-22T14:38:54;11.88;;;4.43;;
63499;SDS011;49654;51.142;14.924;2023-02-22T14:41:28;14.98;;;4.95;;
63499;SDS011;49654;51.142;14.924;2023-02-22T14:43:58;12.75;;;4.88;;
63499;SDS011;49654;51.142;14.924;2023-02-22T14:46:30;17.90;;;4.38;;
63499;SDS011;49654;51.142;14.924;2023-02-22T14:49:06;9.85;;;3.75;;
63499;SDS011;49654;51.142;14.924;2023-02-22T14:51:47;10.18;;;4.15;;
63499;SDS011;49654;51.142;14.924;2023-02-22T14:54:21;12.65;;;4.22;;
63499;SDS011;49654;51.142;14.924;2023-02-22T14:56:54;12.10;;;4.35;;
63499;SDS011;49654;51.142;14.924;2023-02-22T14:59:43;10.70;;;3.80;;
63499;SDS011;49654;51.142;14.924;2023-02-22T15:02:16;11.60;;;3.78;;